sensor_id;sensor_type;location;lat;lon;timestamp;temperature;humidity
35373;DHT22;21476;51.652;7.852;2022-12-11T00:02:28;1.60;99.90
35373;DHT22;21476;51.652;7.852;2022-12-11T00:05:30;1.50;99.90
35373;DHT22;21476;51.652;7.852;2022-12-11T00:08:27;1.50;99.90
35373;DHT22;21476;51.652;7.852;2022-12-11T00:11:02;1.50;99.90
35373;DHT22;21476;51.652;7.852;2022-12-11T00:13:46;1.60;99.90
35373;DHT22;21476;51.652;7.852;2022-12-11T00:16:27;1.50;99.90
35373;DHT22;21476;51.652;7.852;2022-12-11T00:18:56;1.50;99.90
35373;DHT22;21476;51.652;7.852;2022-12-11T00:21:37;1.50;99.90
35373;DHT22;21476;51.652;7.852;2022-12-11T00:27:24;1.40;99.90
35373;DHT22;21476;51.652;7.852;2022-12-11T00:30:19;1.50;99.90
35373;DHT22;21476;51.652;7.852;2022-12-11T00:32:45;1.50;99.90
35373;DHT22;21476;51.652;7.852;2022-12-11T00:35:10;1.40;99.90
35373;DHT22;21476;51.652;7.852;2022-12-11T00:38:04;1.40;99.90
35373;DHT22;21476;51.652;7.852;2022-12-11T00:41:20;1.40;99.90
35373;DHT22;21476;51.652;7.852;2022-12-11T00:44:20;1.30;99.90
35373;DHT22;21476;51.652;7.852;2022-12-11T00:47:04;1.40;99.90
35373;DHT22;21476;51.652;7.852;2022-12-11T00:49:40;1.40;99.90
35373;DHT22;21476;51.652;7.852;2022-12-11T00:52:09;1.40;99.90
35373;DHT22;21476;51.652;7.852;2022-12-11T00:54:58;1.40;99.90
35373;DHT22;21476;51.652;7.852;2022-12-11T00:57:24;1.50;99.90
35373;DHT22;21476;51.652;7.852;2022-12-11T01:00:02;1.40;99.90
35373;DHT22;21476;51.652;7.852;2022-12-11T01:02:39;1.60;99.90
35373;DHT22;21476;51.652;7.852;2022-12-11T01:05:24;1.60;99.90
35373;DHT22;21476;51.652;7.852;2022-12-11T01:07:50;1.50;99.90
35373;DHT22;21476;51.652;7.852;2022-12-11T01:10:16;1.50;99.90
35373;DHT22;21476;51.652;7.852;2022-12-11T01:13:06;1.60;99.90
35373;DHT22;21476;51.652;7.852;2022-12-11T01:18:25;1.50;99.90
35373;DHT22;21476;51.652;7.852;2022-12-11T01:20:54;1.50;99.90
35373;DHT22;21476;51.652;7.852;2022-12-11T01:23:22;1.60;99.90
35373;DHT22;21476;51.652;7.852;2022-12-11T01:25:57;1.60;99.90
35373;DHT22;21476;51.652;7.852;2022-12-11T01:28:56;1.50;99.90
35373;DHT22;21476;51.652;7.852;2022-12-11T01:31:24;1.40;99.90
35373;DHT22;21476;51.652;7.852;2022-12-11T01:34:16;1.40;99.90
35373;DHT22;21476;51.652;7.852;2022-12-11T01:36:55;1.30;99.90
35373;DHT22;21476;51.652;7.852;2022-12-11T01:39:38;1.30;99.90
35373;DHT22;21476;51.652;7.852;2022-12-11T01:42:08;1.40;99.90
35373;DHT22;21476;51.652;7.852;2022-12-11T01:47:10;1.30;99.90
35373;DHT22;21476;51.652;7.852;2022-12-11T01:49:36;1.40;99.90
35373;DHT22;21476;51.652;7.852;2022-12-11T01:52:14;1.40;99.90
35373;DHT22;21476;51.652;7.852;2022-12-11T01:54:43;1.30;99.90
35373;DHT22;21476;51.652;7.852;2022-12-11T01:57:18;1.20;99.90
35373;DHT22;21476;51.652;7.852;2022-12-11T01:59:50;1.20;99.90
35373;DHT22;21476;51.652;7.852;2022-12-11T02:02:29;1.30;99.90
35373;DHT22;21476;51.652;7.852;2022-12-11T02:04:55;1.40;99.90
35373;DHT22;21476;51.652;7.852;2022-12-11T02:07:21;1.40;99.90
35373;DHT22;21476;51.652;7.852;2022-12-11T02:09:50;1.30;99.90
35373;DHT22;21476;51.652;7.852;2022-12-11T02:12:45;1.20;99.90
35373;DHT22;21476;51.652;7.852;2022-12-11T02:18:33;1.20;99.90
35373;DHT22;21476;51.652;7.852;2022-12-11T02:21:07;1.10;99.90
35373;DHT22;21476;51.652;7.852;2022-12-11T02:32:05;1.00;99.90
35373;DHT22;21476;51.652;7.852;2022-12-11T02:34:46;1.10;99.90
35373;DHT22;21476;51.652;7.852;2022-12-11T02:37:20;1.00;99.90
35373;DHT22;21476;51.652;7.852;2022-12-11T02:39:49;1.00;99.90
35373;DHT22;21476;51.652;7.852;2022-12-11T02:42:17;0.90;99.90
35373;DHT22;21476;51.652;7.852;2022-12-11T02:44:45;1.00;99.90
35373;DHT22;21476;51.652;7.852;2022-12-11T02:47:19;1.00;99.90
35373;DHT22;21476;51.652;7.852;2022-12-11T02:49:48;1.00;99.90
35373;DHT22;21476;51.652;7.852;2022-12-11T02:52:21;0.90;99.90
35373;DHT22;21476;51.652;7.852;2022-12-11T02:54:56;0.90;99.90
35373;DHT22;21476;51.652;7.852;2022-12-11T02:57:52;0.90;99.90
35373;DHT22;21476;51.652;7.852;2022-12-11T03:00:20;0.80;99.90
35373;DHT22;21476;51.652;7.852;2022-12-11T03:02:46;0.90;99.90
35373;DHT22;21476;51.652;7.852;2022-12-11T03:05:15;0.80;99.90
35373;DHT22;21476;51.652;7.852;2022-12-11T03:07:43;1.00;99.90
35373;DHT22;21476;51.652;7.852;2022-12-11T03:10:19;1.00;99.90
35373;DHT22;21476;51.652;7.852;2022-12-11T03:12:52;1.00;99.90
35373;DHT22;21476;51.652;7.852;2022-12-11T03:15:21;1.00;99.90
35373;DHT22;21476;51.652;7.852;2022-12-11T03:18:11;1.00;99.90
35373;DHT22;21476;51.652;7.852;2022-12-11T03:21:14;1.00;99.90
35373;DHT22;21476;51.652;7.852;2022-12-11T03:26:29;1.00;99.90
35373;DHT22;21476;51.652;7.852;2022-12-11T03:29:20;1.00;99.90
35373;DHT22;21476;51.652;7.852;2022-12-11T03:32:09;1.00;99.90
35373;DHT22;21476;51.652;7.852;2022-12-11T03:37:38;0.90;99.90
35373;DHT22;21476;51.652;7.852;2022-12-11T03:40:12;0.90;99.90
35373;DHT22;21476;51.652;7.852;2022-12-11T03:42:47;0.90;99.90
35373;DHT22;21476;51.652;7.852;2022-12-11T03:45:21;0.90;99.90
35373;DHT22;21476;51.652;7.852;2022-12-11T03:47:50;0.90;99.90
35373;DHT22;21476;51.652;7.852;2022-12-11T03:50:21;0.90;99.90
35373;DHT22;21476;51.652;7.852;2022-12-11T03:53:03;0.90;99.90
35373;DHT22;21476;51.652;7.852;2022-12-11T03:55:31;0.80;99.90
35373;DHT22;21476;51.652;7.852;2022-12-11T03:57:57;0.80;99.90
35373;DHT22;21476;51.652;7.852;2022-12-11T04:00:23;0.80;99.90
35373;DHT22;21476;51.652;7.852;2022-12-11T04:02:58;0.80;99.90
35373;DHT22;21476;51.652;7.852;2022-12-11T04:05:53;0.80;99.90
35373;DHT22;21476;51.652;7.852;2022-12-11T04:08:23;0.70;99.90
35373;DHT22;21476;51.652;7.852;2022-12-11T04:11:01;0.70;99.90
35373;DHT22;21476;51.652;7.852;2022-12-11T04:13:45;0.80;99.90
35373;DHT22;21476;51.652;7.852;2022-12-11T04:16:33;0.80;99.90
35373;DHT22;21476;51.652;7.852;2022-12-11T04:19:10;0.90;99.90
35373;DHT22;21476;51.652;7.852;2022-12-11T04:21:54;0.80;99.90
35373;DHT22;21476;51.652;7.852;2022-12-11T04:24:59;0.80;99.90
35373;DHT22;21476;51.652;7.852;2022-12-11T04:27:27;0.80;99.90
35373;DHT22;21476;51.652;7.852;2022-12-11T04:30:16;0.80;99.90
35373;DHT22;21476;51.652;7.852;2022-12-11T04:32:52;0.70;99.90
35373;DHT22;21476;51.652;7.852;2022-12-11T04:35:21;0.70;99.90
35373;DHT22;21476;51.652;7.852;2022-12-11T04:37:47;0.60;99.90
35373;DHT22;21476;51.652;7.852;2022-12-11T04:40:17;0.70;99.90
35373;DHT22;21476;51.652;7.852;2022-12-11T04:42:50;0.70;99.90
35373;DHT22;21476;51.652;7.852;2022-12-11T04:45:16;0.70;99.90
35373;DHT22;21476;51.652;7.852;2022-12-11T04:47:42;0.70;99.90
35373;DHT22;21476;51.652;7.852;2022-12-11T04:50:12;0.70;99.90
35373;DHT22;21476;51.652;7.852;2022-12-11T04:52:41;0.70;99.90
35373;DHT22;21476;51.652;7.852;2022-12-11T04:55:13;0.70;99.90
35373;DHT22;21476;51.652;7.852;2022-12-11T04:57:39;0.70;99.90
35373;DHT22;21476;51.652;7.852;2022-12-11T05:00:07;0.70;99.90
35373;DHT22;21476;51.652;7.852;2022-12-11T05:02:37;0.90;99.90
35373;DHT22;21476;51.652;7.852;2022-12-11T05:05:07;0.80;99.90
35373;DHT22;21476;51.652;7.852;2022-12-11T05:07:37;0.80;99.90
35373;DHT22;21476;51.652;7.852;2022-12-11T05:10:03;0.80;99.90
35373;DHT22;21476;51.652;7.852;2022-12-11T05:12:31;0.70;99.90
35373;DHT22;21476;51.652;7.852;2022-12-11T05:14:56;0.70;99.90
35373;DHT22;21476;51.652;7.852;2022-12-11T05:17:22;0.70;99.90
35373;DHT22;21476;51.652;7.852;2022-12-11T05:19:49;0.70;99.90
35373;DHT22;21476;51.652;7.852;2022-12-11T05:22:16;0.70;99.90
35373;DHT22;21476;51.652;7.852;2022-12-11T05:24:42;0.80;99.90
35373;DHT22;21476;51.652;7.852;2022-12-11T05:27:08;0.80;99.90
35373;DHT22;21476;51.652;7.852;2022-12-11T05:29:34;0.80;99.90
35373;DHT22;21476;51.652;7.852;2022-12-11T05:32:00;0.80;99.90
35373;DHT22;21476;51.652;7.852;2022-12-11T05:34:26;0.80;99.90
35373;DHT22;21476;51.652;7.852;2022-12-11T05:36:52;0.80;99.90
35373;DHT22;21476;51.652;7.852;2022-12-11T05:39:17;0.90;99.90
35373;DHT22;21476;51.652;7.852;2022-12-11T05:41:43;0.80;99.90
35373;DHT22;21476;51.652;7.852;2022-12-11T05:44:12;0.90;99.90
35373;DHT22;21476;51.652;7.852;2022-12-11T05:46:38;0.90;99.90
35373;DHT22;21476;51.652;7.852;2022-12-11T05:49:04;0.80;99.90
35373;DHT22;21476;51.652;7.852;2022-12-11T05:51:31;0.80;99.90
35373;DHT22;21476;51.652;7.852;2022-12-11T05:53:59;0.80;99.90
35373;DHT22;21476;51.652;7.852;2022-12-11T05:56:27;0.80;99.90
35373;DHT22;21476;51.652;7.852;2022-12-11T05:58:53;0.80;99.90
35373;DHT22;21476;51.652;7.852;2022-12-11T06:01:25;0.80;99.90
35373;DHT22;21476;51.652;7.852;2022-12-11T06:03:52;0.80;99.90
35373;DHT22;21476;51.652;7.852;2022-12-11T06:06:18;0.80;99.90
35373;DHT22;21476;51.652;7.852;2022-12-11T06:08:43;0.80;99.90
35373;DHT22;21476;51.652;7.852;2022-12-11T06:11:11;0.80;99.90
35373;DHT22;21476;51.652;7.852;2022-12-11T06:13:38;0.80;99.90
35373;DHT22;21476;51.652;7.852;2022-12-11T06:16:06;0.70;99.90
35373;DHT22;21476;51.652;7.852;2022-12-11T06:18:39;0.70;99.90
35373;DHT22;21476;51.652;7.852;2022-12-11T06:21:11;0.70;99.90
35373;DHT22;21476;51.652;7.852;2022-12-11T06:23:38;0.70;99.90
35373;DHT22;21476;51.652;7.852;2022-12-11T06:26:04;0.70;99.90
35373;DHT22;21476;51.652;7.852;2022-12-11T06:28:29;0.80;99.90
35373;DHT22;21476;51.652;7.852;2022-12-11T06:30:58;0.80;99.90
35373;DHT22;21476;51.652;7.852;2022-12-11T06:33:24;0.70;99.90
35373;DHT22;21476;51.652;7.852;2022-12-11T06:35:50;0.70;99.90
35373;DHT22;21476;51.652;7.852;2022-12-11T06:38:16;0.70;99.90
35373;DHT22;21476;51.652;7.852;2022-12-11T06:40:42;0.80;99.90
35373;DHT22;21476;51.652;7.852;2022-12-11T06:43:07;0.70;99.90
35373;DHT22;21476;51.652;7.852;2022-12-11T06:45:33;0.70;99.90
35373;DHT22;21476;51.652;7.852;2022-12-11T06:47:59;0.80;99.90
35373;DHT22;21476;51.652;7.852;2022-12-11T06:50:24;0.80;99.90
35373;DHT22;21476;51.652;7.852;2022-12-11T06:52:50;0.70;99.90
35373;DHT22;21476;51.652;7.852;2022-12-11T06:55:16;0.70;99.90
35373;DHT22;21476;51.652;7.852;2022-12-11T06:57:41;0.70;99.90
35373;DHT22;21476;51.652;7.852;2022-12-11T07:00:07;0.70;99.90
35373;DHT22;21476;51.652;7.852;2022-12-11T07:02:33;0.80;99.90
35373;DHT22;21476;51.652;7.852;2022-12-11T07:04:59;0.70;99.90
35373;DHT22;21476;51.652;7.852;2022-12-11T07:07:24;0.80;99.90
35373;DHT22;21476;51.652;7.852;2022-12-11T07:09:51;0.80;99.90
35373;DHT22;21476;51.652;7.852;2022-12-11T07:12:17;0.80;99.90
35373;DHT22;21476;51.652;7.852;2022-12-11T07:14:42;0.80;99.90
35373;DHT22;21476;51.652;7.852;2022-12-11T07:17:08;0.80;99.90
35373;DHT22;21476;51.652;7.852;2022-12-11T07:19:33;0.80;99.90
35373;DHT22;21476;51.652;7.852;2022-12-11T07:21:59;0.90;99.90
35373;DHT22;21476;51.652;7.852;2022-12-11T07:24:24;0.80;99.90
35373;DHT22;21476;51.652;7.852;2022-12-11T07:26:50;0.80;99.90
35373;DHT22;21476;51.652;7.852;2022-12-11T07:29:17;0.80;99.90
35373;DHT22;21476;51.652;7.852;2022-12-11T07:31:43;0.90;99.90
35373;DHT22;21476;51.652;7.852;2022-12-11T07:34:11;1.00;99.90
35373;DHT22;21476;51.652;7.852;2022-12-11T07:36:37;0.90;99.90
35373;DHT22;21476;51.652;7.852;2022-12-11T07:39:03;0.90;99.90
35373;DHT22;21476;51.652;7.852;2022-12-11T07:41:29;0.90;99.90
35373;DHT22;21476;51.652;7.852;2022-12-11T07:43:56;0.90;99.90
35373;DHT22;21476;51.652;7.852;2022-12-11T07:46:24;0.90;99.90
35373;DHT22;21476;51.652;7.852;2022-12-11T07:48:50;1.00;99.90
35373;DHT22;21476;51.652;7.852;2022-12-11T07:51:19;1.00;99.90
35373;DHT22;21476;51.652;7.852;2022-12-11T07:53:48;0.90;99.90
35373;DHT22;21476;51.652;7.852;2022-12-11T07:56:15;0.90;99.90
35373;DHT22;21476;51.652;7.852;2022-12-11T07:58:41;0.80;99.90
35373;DHT22;21476;51.652;7.852;2022-12-11T08:01:15;0.90;99.90
35373;DHT22;21476;51.652;7.852;2022-12-11T08:03:41;0.90;99.90
35373;DHT22;21476;51.652;7.852;2022-12-11T08:06:08;1.00;99.90
35373;DHT22;21476;51.652;7.852;2022-12-11T08:08:37;1.10;99.90
35373;DHT22;21476;51.652;7.852;2022-12-11T08:11:03;1.20;99.90
35373;DHT22;21476;51.652;7.852;2022-12-11T08:13:29;1.10;99.90
35373;DHT22;21476;51.652;7.852;2022-12-11T08:15:58;1.00;99.90
35373;DHT22;21476;51.652;7.852;2022-12-11T08:18:27;1.00;99.90
35373;DHT22;21476;51.652;7.852;2022-12-11T08:20:52;1.00;99.90
35373;DHT22;21476;51.652;7.852;2022-12-11T08:23:18;1.00;99.90
35373;DHT22;21476;51.652;7.852;2022-12-11T08:25:43;1.00;99.90
35373;DHT22;21476;51.652;7.852;2022-12-11T08:28:09;1.00;99.90
35373;DHT22;21476;51.652;7.852;2022-12-11T08:30:37;1.10;99.90
35373;DHT22;21476;51.652;7.852;2022-12-11T08:33:03;1.10;99.90
35373;DHT22;21476;51.652;7.852;2022-12-11T08:35:28;1.10;99.90
35373;DHT22;21476;51.652;7.852;2022-12-11T08:37:54;1.00;99.90
35373;DHT22;21476;51.652;7.852;2022-12-11T08:40:20;1.10;99.90
35373;DHT22;21476;51.652;7.852;2022-12-11T08:42:46;1.00;99.90
35373;DHT22;21476;51.652;7.852;2022-12-11T08:45:11;1.00;99.90
35373;DHT22;21476;51.652;7.852;2022-12-11T08:47:37;1.10;99.90
35373;DHT22;21476;51.652;7.852;2022-12-11T08:50:03;1.20;99.90
35373;DHT22;21476;51.652;7.852;2022-12-11T08:52:29;1.30;99.90
35373;DHT22;21476;51.652;7.852;2022-12-11T08:54:56;1.20;99.90
35373;DHT22;21476;51.652;7.852;2022-12-11T08:57:22;1.40;99.90
35373;DHT22;21476;51.652;7.852;2022-12-11T08:59:48;1.50;99.90
35373;DHT22;21476;51.652;7.852;2022-12-11T09:02:14;1.40;99.90
35373;DHT22;21476;51.652;7.852;2022-12-11T09:04:39;1.30;99.90
35373;DHT22;21476;51.652;7.852;2022-12-11T09:07:08;1.30;99.90
35373;DHT22;21476;51.652;7.852;2022-12-11T09:09:33;1.20;99.90
35373;DHT22;21476;51.652;7.852;2022-12-11T09:11:59;1.20;99.90
35373;DHT22;21476;51.652;7.852;2022-12-11T09:14:26;1.20;99.90
35373;DHT22;21476;51.652;7.852;2022-12-11T09:16:51;1.20;99.90
35373;DHT22;21476;51.652;7.852;2022-12-11T09:19:17;1.20;99.90
35373;DHT22;21476;51.652;7.852;2022-12-11T09:21:45;1.30;99.90
35373;DHT22;21476;51.652;7.852;2022-12-11T09:24:12;1.40;99.90
35373;DHT22;21476;51.652;7.852;2022-12-11T09:26:39;1.40;99.90
35373;DHT22;21476;51.652;7.852;2022-12-11T09:29:05;1.40;99.90
35373;DHT22;21476;51.652;7.852;2022-12-11T09:31:34;1.40;99.90
35373;DHT22;21476;51.652;7.852;2022-12-11T09:34:04;1.30;99.90
35373;DHT22;21476;51.652;7.852;2022-12-11T09:36:30;1.30;99.90
35373;DHT22;21476;51.652;7.852;2022-12-11T09:39:00;1.10;99.90
35373;DHT22;21476;51.652;7.852;2022-12-11T09:47:30;1.40;99.90
35373;DHT22;21476;51.652;7.852;2022-12-11T09:55:55;1.30;99.90
35373;DHT22;21476;51.652;7.852;2022-12-11T10:06:35;1.30;99.90
35373;DHT22;21476;51.652;7.852;2022-12-11T10:09:06;1.40;99.90
35373;DHT22;21476;51.652;7.852;2022-12-11T10:16:43;1.40;99.90
35373;DHT22;21476;51.652;7.852;2022-12-11T10:19:19;1.40;99.90
35373;DHT22;21476;51.652;7.852;2022-12-11T10:21:47;1.40;99.90
35373;DHT22;21476;51.652;7.852;2022-12-11T10:26:52;1.50;99.90
35373;DHT22;21476;51.652;7.852;2022-12-11T10:29:19;1.50;99.90
35373;DHT22;21476;51.652;7.852;2022-12-11T10:34:14;1.50;99.90
35373;DHT22;21476;51.652;7.852;2022-12-11T10:36:43;1.40;99.90
35373;DHT22;21476;51.652;7.852;2022-12-11T10:39:20;1.20;99.90
35373;DHT22;21476;51.652;7.852;2022-12-11T10:41:51;1.30;99.90
35373;DHT22;21476;51.652;7.852;2022-12-11T10:44:21;1.30;99.90
35373;DHT22;21476;51.652;7.852;2022-12-11T10:46:59;1.30;99.90
35373;DHT22;21476;51.652;7.852;2022-12-11T10:49:30;1.30;99.90
35373;DHT22;21476;51.652;7.852;2022-12-11T10:51:57;1.50;99.90
35373;DHT22;21476;51.652;7.852;2022-12-11T10:56:54;1.50;99.90
35373;DHT22;21476;51.652;7.852;2022-12-11T11:01:53;1.50;99.90
35373;DHT22;21476;51.652;7.852;2022-12-11T11:04:22;1.40;99.90
35373;DHT22;21476;51.652;7.852;2022-12-11T11:07:22;1.40;99.90
35373;DHT22;21476;51.652;7.852;2022-12-11T11:09:49;1.40;99.90
35373;DHT22;21476;51.652;7.852;2022-12-11T11:12:26;1.40;99.90
35373;DHT22;21476;51.652;7.852;2022-12-11T11:15:00;1.50;99.90
35373;DHT22;21476;51.652;7.852;2022-12-11T11:17:25;1.50;99.90
35373;DHT22;21476;51.652;7.852;2022-12-11T11:19:51;1.50;99.90
35373;DHT22;21476;51.652;7.852;2022-12-11T11:22:18;1.50;99.90
35373;DHT22;21476;51.652;7.852;2022-12-11T11:24:57;1.50;99.90
35373;DHT22;21476;51.652;7.852;2022-12-11T11:27:43;1.60;99.90
35373;DHT22;21476;51.652;7.852;2022-12-11T11:30:33;1.60;99.90
35373;DHT22;21476;51.652;7.852;2022-12-11T11:33:09;1.70;99.90
35373;DHT22;21476;51.652;7.852;2022-12-11T11:35:36;1.50;99.90
35373;DHT22;21476;51.652;7.852;2022-12-11T11:40:44;1.60;99.90
35373;DHT22;21476;51.652;7.852;2022-12-11T11:43:15;1.60;99.90
35373;DHT22;21476;51.652;7.852;2022-12-11T11:46:30;1.60;99.90
35373;DHT22;21476;51.652;7.852;2022-12-11T11:51:38;1.50;99.90
35373;DHT22;21476;51.652;7.852;2022-12-11T11:54:30;1.60;99.90
35373;DHT22;21476;51.652;7.852;2022-12-11T11:56:58;1.60;99.90
35373;DHT22;21476;51.652;7.852;2022-12-11T11:59:30;1.60;99.90
35373;DHT22;21476;51.652;7.852;2022-12-11T12:01:58;1.60;99.90
35373;DHT22;21476;51.652;7.852;2022-12-11T12:04:30;1.60;99.90
35373;DHT22;21476;51.652;7.852;2022-12-11T12:07:28;1.60;99.90
35373;DHT22;21476;51.652;7.852;2022-12-11T12:10:19;1.50;99.90
35373;DHT22;21476;51.652;7.852;2022-12-11T12:15:42;1.40;99.90
35373;DHT22;21476;51.652;7.852;2022-12-11T12:18:14;1.50;99.90
35373;DHT22;21476;51.652;7.852;2022-12-11T12:20:59;1.50;99.90
35373;DHT22;21476;51.652;7.852;2022-12-11T12:23:37;1.60;99.90
35373;DHT22;21476;51.652;7.852;2022-12-11T12:26:22;1.50;99.90
35373;DHT22;21476;51.652;7.852;2022-12-11T12:29:15;1.60;99.90
35373;DHT22;21476;51.652;7.852;2022-12-11T12:37:34;1.60;99.90
35373;DHT22;21476;51.652;7.852;2022-12-11T12:40:32;1.60;99.90
35373;DHT22;21476;51.652;7.852;2022-12-11T12:45:51;1.60;99.90
35373;DHT22;21476;51.652;7.852;2022-12-11T12:48:19;1.60;99.90
35373;DHT22;21476;51.652;7.852;2022-12-11T12:50:47;1.60;99.90
35373;DHT22;21476;51.652;7.852;2022-12-11T12:53:28;1.60;99.90
35373;DHT22;21476;51.652;7.852;2022-12-11T12:55:57;1.50;99.90
35373;DHT22;21476;51.652;7.852;2022-12-11T13:00:53;1.50;99.90
35373;DHT22;21476;51.652;7.852;2022-12-11T13:03:23;1.60;99.90
35373;DHT22;21476;51.652;7.852;2022-12-11T13:06:07;1.50;99.90
35373;DHT22;21476;51.652;7.852;2022-12-11T13:08:40;1.50;99.90
35373;DHT22;21476;51.652;7.852;2022-12-11T13:11:11;1.50;99.90
35373;DHT22;21476;51.652;7.852;2022-12-11T13:13:40;1.50;99.90
35373;DHT22;21476;51.652;7.852;2022-12-11T13:18:45;1.40;99.90
35373;DHT22;21476;51.652;7.852;2022-12-11T13:21:34;1.40;99.90
35373;DHT22;21476;51.652;7.852;2022-12-11T13:24:14;1.40;99.90
35373;DHT22;21476;51.652;7.852;2022-12-11T13:26:40;1.50;99.90
35373;DHT22;21476;51.652;7.852;2022-12-11T13:29:30;1.50;99.90
35373;DHT22;21476;51.652;7.852;2022-12-11T13:34:30;1.50;99.90
35373;DHT22;21476;51.652;7.852;2022-12-11T13:36:58;1.40;99.90
35373;DHT22;21476;51.652;7.852;2022-12-11T13:39:26;1.30;99.90
35373;DHT22;21476;51.652;7.852;2022-12-11T13:42:07;1.40;99.90
35373;DHT22;21476;51.652;7.852;2022-12-11T13:44:38;1.40;99.90
35373;DHT22;21476;51.652;7.852;2022-12-11T13:47:06;1.40;99.90
35373;DHT22;21476;51.652;7.852;2022-12-11T13:49:38;1.50;99.90
35373;DHT22;21476;51.652;7.852;2022-12-11T13:52:05;1.60;99.90
35373;DHT22;21476;51.652;7.852;2022-12-11T13:54:34;1.60;99.90
35373;DHT22;21476;51.652;7.852;2022-12-11T13:57:15;1.60;99.90
35373;DHT22;21476;51.652;7.852;2022-12-11T13:59:47;1.50;99.90
35373;DHT22;21476;51.652;7.852;2022-12-11T14:02:32;1.40;99.90
35373;DHT22;21476;51.652;7.852;2022-12-11T14:05:09;1.50;99.90
35373;DHT22;21476;51.652;7.852;2022-12-11T14:07:39;1.50;99.90
35373;DHT22;21476;51.652;7.852;2022-12-11T14:10:23;1.40;99.90
35373;DHT22;21476;51.652;7.852;2022-12-11T14:13:22;1.30;99.90
35373;DHT22;21476;51.652;7.852;2022-12-11T14:15:49;1.40;99.90
35373;DHT22;21476;51.652;7.852;2022-12-11T14:18:19;1.40;99.90
35373;DHT22;21476;51.652;7.852;2022-12-11T14:20:53;1.40;99.90
35373;DHT22;21476;51.652;7.852;2022-12-11T14:23:21;1.40;99.90
35373;DHT22;21476;51.652;7.852;2022-12-11T14:25:54;1.40;99.90
35373;DHT22;21476;51.652;7.852;2022-12-11T14:28:20;1.30;99.90
35373;DHT22;21476;51.652;7.852;2022-12-11T14:30:49;1.30;99.90
35373;DHT22;21476;51.652;7.852;2022-12-11T14:33:18;1.40;99.90
35373;DHT22;21476;51.652;7.852;2022-12-11T14:35:46;1.40;99.90
35373;DHT22;21476;51.652;7.852;2022-12-11T14:38:23;1.50;99.90
35373;DHT22;21476;51.652;7.852;2022-12-11T14:40:53;1.40;99.90
35373;DHT22;21476;51.652;7.852;2022-12-11T14:43:42;1.40;99.90
35373;DHT22;21476;51.652;7.852;2022-12-11T14:46:45;1.40;99.90
35373;DHT22;21476;51.652;7.852;2022-12-11T14:52:17;1.40;99.90
35373;DHT22;21476;51.652;7.852;2022-12-11T14:54:49;1.40;99.90
35373;DHT22;21476;51.652;7.852;2022-12-11T14:57:23;1.30;99.90
35373;DHT22;21476;51.652;7.852;2022-12-11T14:59:51;1.20;99.90
35373;DHT22;21476;51.652;7.852;2022-12-11T15:02:31;1.20;99.90
35373;DHT22;21476;51.652;7.852;2022-12-11T15:07:36;1.30;99.90
35373;DHT22;21476;51.652;7.852;2022-12-11T15:10:02;1.40;99.90
35373;DHT22;21476;51.652;7.852;2022-12-11T15:12:28;1.40;99.90
35373;DHT22;21476;51.652;7.852;2022-12-11T15:14:57;1.30;99.90
35373;DHT22;21476;51.652;7.852;2022-12-11T15:17:26;1.40;99.90
35373;DHT22;21476;51.652;7.852;2022-12-11T15:19:59;1.40;99.90
35373;DHT22;21476;51.652;7.852;2022-12-11T15:22:30;1.40;99.90
35373;DHT22;21476;51.652;7.852;2022-12-11T15:24:56;1.40;99.90
35373;DHT22;21476;51.652;7.852;2022-12-11T15:27:34;1.40;99.90
35373;DHT22;21476;51.652;7.852;2022-12-11T15:30:13;1.30;99.90
35373;DHT22;21476;51.652;7.852;2022-12-11T15:32:39;1.30;99.90
35373;DHT22;21476;51.652;7.852;2022-12-11T15:35:25;1.40;99.90
35373;DHT22;21476;51.652;7.852;2022-12-11T15:37:53;1.30;99.90
35373;DHT22;21476;51.652;7.852;2022-12-11T15:40:19;1.20;99.90
35373;DHT22;21476;51.652;7.852;2022-12-11T15:42:44;1.20;99.90
35373;DHT22;21476;51.652;7.852;2022-12-11T15:45:25;1.10;99.90
35373;DHT22;21476;51.652;7.852;2022-12-11T15:47:53;1.10;99.90
35373;DHT22;21476;51.652;7.852;2022-12-11T15:52:46;1.10;99.90
35373;DHT22;21476;51.652;7.852;2022-12-11T15:55:13;1.10;99.90
35373;DHT22;21476;51.652;7.852;2022-12-11T15:57:45;1.20;99.90
35373;DHT22;21476;51.652;7.852;2022-12-11T16:00:16;1.10;99.90
35373;DHT22;21476;51.652;7.852;2022-12-11T16:02:43;1.20;99.90
35373;DHT22;21476;51.652;7.852;2022-12-11T16:05:09;1.10;99.90
35373;DHT22;21476;51.652;7.852;2022-12-11T16:07:36;1.10;99.90
35373;DHT22;21476;51.652;7.852;2022-12-11T16:10:03;1.20;99.90
35373;DHT22;21476;51.652;7.852;2022-12-11T16:12:28;1.30;99.90
35373;DHT22;21476;51.652;7.852;2022-12-11T16:14:54;1.30;99.90
35373;DHT22;21476;51.652;7.852;2022-12-11T16:17:20;1.30;99.90
35373;DHT22;21476;51.652;7.852;2022-12-11T16:19:45;1.30;99.90
35373;DHT22;21476;51.652;7.852;2022-12-11T16:22:12;1.30;99.90
35373;DHT22;21476;51.652;7.852;2022-12-11T16:24:38;1.10;99.90
35373;DHT22;21476;51.652;7.852;2022-12-11T16:27:04;1.10;99.90
35373;DHT22;21476;51.652;7.852;2022-12-11T16:29:38;1.10;99.90
35373;DHT22;21476;51.652;7.852;2022-12-11T16:32:05;1.00;99.90
35373;DHT22;21476;51.652;7.852;2022-12-11T16:34:33;1.00;99.90
35373;DHT22;21476;51.652;7.852;2022-12-11T16:36:59;1.00;99.90
35373;DHT22;21476;51.652;7.852;2022-12-11T16:39:25;1.10;99.90
35373;DHT22;21476;51.652;7.852;2022-12-11T16:41:51;1.20;99.90
35373;DHT22;21476;51.652;7.852;2022-12-11T16:44:22;1.10;99.90
35373;DHT22;21476;51.652;7.852;2022-12-11T16:46:48;1.20;99.90
35373;DHT22;21476;51.652;7.852;2022-12-11T16:49:14;1.20;99.90
35373;DHT22;21476;51.652;7.852;2022-12-11T16:51:40;1.20;99.90
35373;DHT22;21476;51.652;7.852;2022-12-11T16:54:06;1.10;99.90
35373;DHT22;21476;51.652;7.852;2022-12-11T16:56:31;1.10;99.90
35373;DHT22;21476;51.652;7.852;2022-12-11T16:58:59;1.10;99.90
35373;DHT22;21476;51.652;7.852;2022-12-11T17:01:25;1.20;99.90
35373;DHT22;21476;51.652;7.852;2022-12-11T17:03:50;1.20;99.90
35373;DHT22;21476;51.652;7.852;2022-12-11T17:06:16;1.20;99.90
35373;DHT22;21476;51.652;7.852;2022-12-11T17:08:43;1.10;99.90
35373;DHT22;21476;51.652;7.852;2022-12-11T17:11:12;1.10;99.90
35373;DHT22;21476;51.652;7.852;2022-12-11T17:13:38;1.10;99.90
35373;DHT22;21476;51.652;7.852;2022-12-11T17:16:06;1.10;99.90
35373;DHT22;21476;51.652;7.852;2022-12-11T17:18:32;1.10;99.90
35373;DHT22;21476;51.652;7.852;2022-12-11T17:20:58;1.10;99.90
35373;DHT22;21476;51.652;7.852;2022-12-11T17:23:24;1.10;99.90
35373;DHT22;21476;51.652;7.852;2022-12-11T17:25:50;1.10;99.90
35373;DHT22;21476;51.652;7.852;2022-12-11T17:28:16;1.30;99.90
35373;DHT22;21476;51.652;7.852;2022-12-11T17:30:43;1.20;99.90
35373;DHT22;21476;51.652;7.852;2022-12-11T17:33:10;1.20;99.90
35373;DHT22;21476;51.652;7.852;2022-12-11T17:35:36;1.20;99.90
35373;DHT22;21476;51.652;7.852;2022-12-11T17:38:02;1.20;99.90
35373;DHT22;21476;51.652;7.852;2022-12-11T17:40:28;1.30;99.90
35373;DHT22;21476;51.652;7.852;2022-12-11T17:42:54;1.20;99.90
35373;DHT22;21476;51.652;7.852;2022-12-11T17:45:20;1.20;99.90
35373;DHT22;21476;51.652;7.852;2022-12-11T17:47:45;1.10;99.90